Hauptseite
METAR-TAF:

METAR-TAF

Flughäfen :

Nürnberg, Deutschland

Flughafen Nürnberg

Breite: 49-30N, Länge: 011-03E, Höhe: 318 m

Beobachtung

Neuester Wetterbericht von vor 33 Minuten, um 13:20 UTC
Wind 15 kt aus Ost/Nordost, variierte zwischen Nord/Nordost und Ost
Temperatur 1°C
Luftfeuchtigkeit 47%
Luftdruck 1021 hPa
Sichtweite 10 km oder mehr
Leicht bewölkt in der Höhe von 4500 ft

METAR: EDDN 241320Z 06015KT 020V100 9999 FEW045 01/M09 Q1021 R28/19//94 NOSIG

Zeit: 14:53 (13:53 UTC)

Prognose

Neuester Wetterbericht von vor 2 Stunden und 53 Minuten, um 11:00 UTC
Gültige Prognose vom 24 um 12 UTC bis 25 um 12 UTC
Wind 15 kt aus Ost/Nordost, Böen bis zu 25 kt
Sichtweite 10 km oder mehr
keine Wolken unter 1500 m und keine Kumulonimbus oder Gewitterwolken
Übergehend zu
vom 24 um 16 UTC bis 24 um 18 UTC
Wind 10 kt aus Ost/Nordost

TAF: EDDN 241100Z 2412/2512 06015G25KT CAVOK BECMG 2416/2418 06010KT

Wetterbeobachtungen und Prognosen von mehr als 4000 Flughäfen (METAR und TAF Bericht).

Die verfügbaren Stationen werden durch gelbe und rote Markierungen auf der Karte dargestellt.

Führen Sie die Maus auf sie, um den Namen der Station zu sehen.

Darauf klicken, um die Beobachtung von Wetterbeobachtungen und Prognosen zu sehen.

Um die Karte zu ändern : klicken Sie auf den grünen Tasten mit einem schwarzen Kreuz Zum Vergrößern, auf den grünen Button mit einem Gedankenstrich zu verkleinern, oder auf die grünen Pfeile für benachbarte Karten.


METAR-TAF: